Time;durP1;ratioP1;P1;durP2;ratioP2;P2;SDS_P1;SDS_P2;PMS_P1;PMS_P2;Temp;Humidity;BMP_temperature;BMP_pressure;BME280_temperature;BME280_humidity;BME280_pressure;Samples;Min_cycle;Max_cycle;Signal;HPM_P1;HPM_P2
2022/12/25 00:01:09;;;;;;;3.53;0.70;;;7.40;99.90;;;;;;5051994;28;20862;-71
2022/12/25 00:03:37;;;;;;;0.63;0.63;;;7.40;99.90;;;;;;5026850;28;20425;-70
2022/12/25 00:06:04;;;;;;;1.40;0.90;;;7.40;99.90;;;;;;5047073;28;20444;-69
2022/12/25 00:08:31;;;;;;;0.95;0.77;;;7.40;99.90;;;;;;5048837;28;20522;-69
2022/12/25 00:11:05;;;;;;;0.60;0.60;;;7.40;99.90;;;;;;5048281;28;20976;-69
2022/12/25 00:13:32;;;;;;;3.58;0.88;;;7.30;99.90;;;;;;5058129;28;20463;-69
2022/12/25 00:15:59;;;;;;;0.73;0.73;;;7.30;99.90;;;;;;5046655;28;20502;-69
2022/12/25 00:18:26;;;;;;;0.80;0.80;;;7.20;99.90;;;;;;5041543;28;20969;-69
2022/12/25 00:21:01;;;;;;;0.70;0.70;;;7.20;99.90;;;;;;5053320;28;21114;-69
2022/12/25 00:23:28;;;;;;;5.72;0.75;;;7.20;99.90;;;;;;5042255;28;20466;-69
2022/12/25 00:25:55;;;;;;;0.60;0.60;;;7.10;99.90;;;;;;5053593;28;20434;-70
2022/12/25 00:28:23;;;;;;;0.63;0.63;;;7.10;99.90;;;;;;5054164;28;20602;-69
2022/12/25 00:30:50;;;;;;;1.33;0.80;;;7.10;99.90;;;;;;5064769;28;20436;-69
2022/12/25 00:33:17;;;;;;;2.27;0.83;;;7.20;99.90;;;;;;5046404;28;20506;-70
2022/12/25 00:35:55;;;;;;;0.70;0.70;;;7.20;99.90;;;;;;5055264;28;20439;-69
2022/12/25 00:38:22;;;;;;;3.30;1.20;;;7.20;99.90;;;;;;5053566;28;20437;-69
2022/12/25 00:40:48;;;;;;;0.75;0.75;;;7.20;99.90;;;;;;5046521;28;20877;-70
2022/12/25 00:43:15;;;;;;;2.80;0.90;;;7.20;99.90;;;;;;5034180;28;20424;-69
2022/12/25 00:45:42;;;;;;;0.70;0.70;;;7.20;99.90;;;;;;5035315;28;20434;-70
2022/12/25 00:48:09;;;;;;;0.93;0.82;;;7.20;99.90;;;;;;5052212;28;20431;-70
2022/12/25 00:50:38;;;;;;;2.30;0.70;;;7.20;99.90;;;;;;5047031;28;20433;-70
2022/12/25 00:53:05;;;;;;;0.77;0.77;;;7.30;99.90;;;;;;5046430;28;20508;-70
2022/12/25 00:55:31;;;;;;;0.65;0.65;;;7.30;99.90;;;;;;5043796;28;20448;-70
2022/12/25 00:57:58;;;;;;;0.55;0.55;;;7.30;99.90;;;;;;5040586;28;20929;-70
2022/12/25 01:00:25;;;;;;;2.00;0.90;;;7.30;99.90;;;;;;5051687;28;20456;-70
2022/12/25 01:02:51;;;;;;;1.50;0.63;;;7.30;99.90;;;;;;5054191;28;20431;-70
2022/12/25 01:05:18;;;;;;;2.33;0.73;;;7.30;99.90;;;;;;5053325;28;20426;-70
2022/12/25 01:07:45;;;;;;;0.80;0.80;;;7.30;99.90;;;;;;5046233;28;20517;-70
2022/12/25 01:10:24;;;;;;;0.63;0.63;;;7.30;99.90;;;;;;5040651;28;20426;-70
2022/12/25 01:12:51;;;;;;;1.33;0.70;;;7.40;99.90;;;;;;5029827;28;20435;-70
2022/12/25 01:15:18;;;;;;;2.67;1.02;;;7.40;99.90;;;;;;5051299;28;20691;-70
2022/12/25 01:17:45;;;;;;;1.20;0.88;;;7.40;99.90;;;;;;5026871;28;20549;-70
2022/12/25 01:20:14;;;;;;;0.60;0.60;;;7.40;99.90;;;;;;5049233;28;20435;-70
2022/12/25 01:22:41;;;;;;;1.30;1.00;;;7.40;99.90;;;;;;5042358;28;20441;-70
2022/12/25 01:25:14;;;;;;;6.40;0.93;;;7.40;99.90;;;;;;5054917;28;20460;-70
2022/12/25 01:27:41;;;;;;;1.30;1.20;;;7.40;99.90;;;;;;5038387;28;20424;-70
2022/12/25 01:30:09;;;;;;;1.20;0.80;;;7.40;99.90;;;;;;5048154;28;20429;-70
2022/12/25 01:32:38;;;;;;;1.10;1.00;;;7.40;99.90;;;;;;5041556;28;20439;-70
2022/12/25 01:35:05;;;;;;;0.80;0.80;;;7.40;99.90;;;;;;5045811;28;20435;-70
2022/12/25 01:37:34;;;;;;;0.52;0.52;;;7.50;99.90;;;;;;5043718;28;20485;-70
2022/12/25 01:40:01;;;;;;;0.93;0.93;;;7.50;99.90;;;;;;5026082;28;20435;-69
2022/12/25 01:42:28;;;;;;;1.05;0.98;;;7.50;99.90;;;;;;5026550;28;20960;-69
2022/12/25 01:45:16;;;;;;;0.93;0.90;;;7.50;99.90;;;;;;5034456;28;20765;-70
2022/12/25 01:47:45;;;;;;;1.90;1.42;;;7.50;99.90;;;;;;5044748;28;20491;-69
2022/12/25 01:50:12;;;;;;;0.98;0.98;;;7.50;99.90;;;;;;5056117;28;20431;-69
2022/12/25 01:52:39;;;;;;;0.53;0.53;;;7.50;99.90;;;;;;5043912;28;20765;-69
2022/12/25 01:55:08;;;;;;;0.90;0.60;;;7.50;99.90;;;;;;5046265;28;20457;-70
2022/12/25 01:57:38;;;;;;;1.10;1.05;;;7.50;99.90;;;;;;5030792;28;20943;-69
2022/12/25 02:00:06;;;;;;;0.65;0.65;;;7.40;99.90;;;;;;5039638;28;20438;-70
2022/12/25 02:02:34;;;;;;;0.73;0.60;;;7.50;99.90;;;;;;5037609;28;20523;-70
2022/12/25 02:05:13;;;;;;;3.10;1.08;;;7.40;99.90;;;;;;5041645;28;20462;-70
2022/12/25 02:07:41;;;;;;;0.63;0.63;;;7.40;99.90;;;;;;5035654;28;20425;-71
2022/12/25 02:10:10;;;;;;;0.60;0.60;;;7.30;99.90;;;;;;5056012;28;20456;-72
2022/12/25 02:12:38;;;;;;;1.00;0.80;;;7.30;99.90;;;;;;5025389;28;21987;-72
2022/12/25 02:15:09;;;;;;;1.07;1.07;;;7.30;99.90;;;;;;5031280;28;20430;-71
2022/12/25 02:17:42;;;;;;;1.15;1.15;;;7.30;99.90;;;;;;5050505;28;20441;-71
2022/12/25 02:20:49;;;;;;;0.52;0.52;;;7.20;99.90;;;;;;5026294;28;20423;-71
2022/12/25 02:23:51;;;;;;;0.77;0.65;;;7.10;99.90;;;;;;5004685;28;20942;-71
2022/12/25 02:26:50;;;;;;;0.50;0.50;;;7.10;99.90;;;;;;5044252;28;20917;-71
2022/12/25 02:29:44;;;;;;;0.63;0.63;;;7.10;99.90;;;;;;5035759;28;20442;-71
2022/12/25 02:32:23;;;;;;;0.75;0.57;;;7.20;99.90;;;;;;5022906;28;20457;-71
2022/12/25 02:35:19;;;;;;;0.45;0.45;;;7.20;99.90;;;;;;5044231;28;20437;-72
2022/12/25 02:38:05;;;;;;;0.40;0.40;;;7.30;99.90;;;;;;5039860;28;20862;-71
2022/12/25 02:40:40;;;;;;;1.83;0.70;;;7.30;99.90;;;;;;5043147;28;20875;-71
2022/12/25 03:12:21;;;;;;;0.40;0.40;;;7.40;99.90;;;;;;5056647;28;20992;-71
2022/12/25 03:17:34;;;;;;;1.40;0.88;;;7.40;99.90;;;;;;5055257;28;20435;-71
2022/12/25 03:28:19;;;;;;;0.60;0.60;;;7.40;99.90;;;;;;5053530;28;20431;-71
2022/12/25 03:31:12;;;;;;;0.90;0.50;;;7.40;99.90;;;;;;5060577;28;20512;-71
2022/12/25 03:37:33;;;;;;;3.37;0.67;;;7.40;99.90;;;;;;5058489;28;20554;-71
2022/12/25 04:36:44;;;;;;;0.43;0.43;;;7.50;99.90;;;;;;5067675;28;20473;-71
2022/12/25 04:39:11;;;;;;;0.40;0.40;;;7.40;99.90;;;;;;5047492;28;20488;-71
2022/12/25 04:41:37;;;;;;;0.65;0.65;;;7.40;99.90;;;;;;5055898;28;20431;-71
2022/12/25 04:44:04;;;;;;;1.00;0.52;;;7.40;99.90;;;;;;5062451;28;20777;-71
2022/12/25 04:46:31;;;;;;;1.03;0.67;;;7.40;99.90;;;;;;5066106;28;20968;-71
2022/12/25 04:48:58;;;;;;;0.37;0.37;;;7.40;99.90;;;;;;5070189;28;20558;-71
2022/12/25 04:51:25;;;;;;;0.50;0.50;;;7.50;99.90;;;;;;5066017;28;20439;-71
2022/12/25 04:53:53;;;;;;;0.33;0.33;;;7.40;99.90;;;;;;5064102;28;20451;-71
2022/12/25 04:56:21;;;;;;;1.70;0.80;;;7.50;99.90;;;;;;5064325;28;20445;-72
2022/12/25 04:58:48;;;;;;;0.50;0.50;;;7.50;99.90;;;;;;5056782;28;20429;-71
2022/12/25 05:01:15;;;;;;;0.25;0.25;;;7.50;99.90;;;;;;5051159;28;20442;-71
2022/12/25 05:03:42;;;;;;;0.60;0.60;;;7.50;99.90;;;;;;5056793;28;20465;-71
2022/12/25 05:06:09;;;;;;;1.17;0.50;;;7.50;99.90;;;;;;5065993;28;20939;-71
2022/12/25 05:08:36;;;;;;;0.20;0.20;;;7.50;99.90;;;;;;5062823;28;20534;-70
2022/12/25 05:11:08;;;;;;;0.85;0.85;;;7.50;99.90;;;;;;5070402;28;20870;-70
2022/12/25 05:13:35;;;;;;;0.60;0.60;;;7.50;99.90;;;;;;5050975;28;20481;-70
2022/12/25 05:16:13;;;;;;;0.60;0.40;;;7.60;99.90;;;;;;5056008;28;20518;-71
2022/12/25 05:18:40;;;;;;;0.52;0.52;;;7.60;99.90;;;;;;5055268;28;20561;-70
2022/12/25 05:21:08;;;;;;;1.80;0.70;;;7.60;99.90;;;;;;5066503;28;20432;-70
2022/12/25 05:23:34;;;;;;;0.60;0.60;;;7.60;99.90;;;;;;5068362;28;20433;-71
2022/12/25 05:26:06;;;;;;;1.80;0.80;;;7.60;99.90;;;;;;5068378;28;20436;-73
2022/12/25 05:28:34;;;;;;;0.50;0.50;;;7.60;99.90;;;;;;5070530;28;20578;-72
2022/12/25 05:31:01;;;;;;;0.90;0.50;;;7.60;99.90;;;;;;5047352;28;20423;-70
2022/12/25 05:33:28;;;;;;;0.50;0.50;;;7.60;99.90;;;;;;5060747;28;20427;-70
2022/12/25 05:35:55;;;;;;;0.40;0.35;;;7.60;99.90;;;;;;5045813;28;20903;-69
2022/12/25 05:38:23;;;;;;;0.70;0.47;;;7.60;99.90;;;;;;5061837;28;20435;-69
2022/12/25 05:40:50;;;;;;;0.73;0.73;;;7.60;99.90;;;;;;5046126;28;20442;-70
2022/12/25 05:43:18;;;;;;;1.00;0.50;;;7.60;99.90;;;;;;5064827;28;20766;-69
2022/12/25 05:45:45;;;;;;;1.20;0.80;;;7.70;99.90;;;;;;5059298;28;20431;-69
2022/12/25 05:48:11;;;;;;;0.50;0.50;;;7.70;99.90;;;;;;5065398;28;20425;-70
2022/12/25 05:50:38;;;;;;;0.70;0.70;;;7.70;99.90;;;;;;5051155;28;20808;-69
2022/12/25 05:53:07;;;;;;;3.10;0.85;;;7.70;99.90;;;;;;5056654;28;20449;-70
2022/12/25 05:55:43;;;;;;;0.30;0.30;;;7.70;99.90;;;;;;5061842;28;20435;-70
2022/12/25 05:58:11;;;;;;;0.47;0.47;;;7.70;99.90;;;;;;5054051;28;20440;-70
2022/12/25 06:00:39;;;;;;;0.60;0.60;;;7.70;99.90;;;;;;5036846;28;20440;-70
2022/12/25 06:03:05;;;;;;;0.40;0.40;;;7.60;99.90;;;;;;5067495;28;20500;-70
2022/12/25 06:05:32;;;;;;;2.22;0.73;;;7.70;99.90;;;;;;5049303;28;20556;-70
2022/12/25 06:07:59;;;;;;;1.42;0.52;;;7.60;99.90;;;;;;5060703;28;20423;-70
2022/12/25 06:10:26;;;;;;;0.77;0.77;;;7.70;99.90;;;;;;5062975;28;20427;-70
2022/12/25 06:12:53;;;;;;;0.47;0.47;;;7.70;99.90;;;;;;5066120;28;20433;-71
2022/12/25 06:15:20;;;;;;;1.17;0.43;;;7.70;99.90;;;;;;5060586;28;20453;-70
2022/12/25 06:17:47;;;;;;;0.77;0.77;;;7.70;99.90;;;;;;5054594;28;20825;-70
2022/12/25 06:20:13;;;;;;;0.70;0.70;;;7.70;99.90;;;;;;5071310;28;20434;-69
2022/12/25 06:22:40;;;;;;;2.40;0.70;;;7.70;99.90;;;;;;5060445;28;20429;-70
2022/12/25 06:25:08;;;;;;;0.60;0.60;;;7.70;99.90;;;;;;5057437;28;20429;-70
2022/12/25 06:27:34;;;;;;;0.50;0.50;;;7.70;99.90;;;;;;5073585;28;20517;-70
2022/12/25 06:30:01;;;;;;;0.93;0.93;;;7.70;99.90;;;;;;5072307;28;20437;-69
2022/12/25 06:32:29;;;;;;;1.00;1.00;;;7.70;99.90;;;;;;5060342;28;20432;-69
2022/12/25 06:34:56;;;;;;;0.53;0.53;;;7.70;99.90;;;;;;5057083;28;20425;-70
2022/12/25 06:37:22;;;;;;;0.68;0.68;;;7.70;99.90;;;;;;5066390;28;20459;-70
2022/12/25 06:39:50;;;;;;;0.50;0.50;;;7.70;99.90;;;;;;5061837;28;20444;-70
2022/12/25 06:42:16;;;;;;;0.50;0.50;;;7.70;99.90;;;;;;5059534;28;20431;-70
2022/12/25 06:44:43;;;;;;;0.47;0.40;;;7.70;99.90;;;;;;5056849;28;20455;-70
2022/12/25 06:47:10;;;;;;;0.85;0.73;;;7.70;99.90;;;;;;5048991;28;20906;-70
2022/12/25 06:49:37;;;;;;;0.95;0.90;;;7.70;99.90;;;;;;5048212;28;20482;-70
2022/12/25 06:52:04;;;;;;;0.50;0.50;;;7.60;99.90;;;;;;5064871;28;20433;-69
2022/12/25 06:54:30;;;;;;;1.00;0.50;;;7.70;99.90;;;;;;5063902;28;20833;-70
2022/12/25 06:56:57;;;;;;;6.53;0.80;;;7.70;99.90;;;;;;5057865;28;20772;-69
2022/12/25 06:59:24;;;;;;;0.80;0.80;;;7.70;99.90;;;;;;5061700;28;20448;-69
2022/12/25 07:01:57;;;;;;;1.65;0.52;;;7.70;99.90;;;;;;5047469;28;20490;-72
2022/12/25 07:04:36;;;;;;;0.80;0.80;;;7.70;99.90;;;;;;5058610;28;20559;-72
2022/12/25 07:07:05;;;;;;;0.47;0.47;;;7.70;99.90;;;;;;5060959;28;20804;-72
2022/12/25 07:09:37;;;;;;;0.47;0.47;;;7.70;99.90;;;;;;5045329;28;20463;-72
2022/12/25 07:12:14;;;;;;;0.43;0.43;;;7.70;99.90;;;;;;5055014;28;20479;-71
2022/12/25 07:14:41;;;;;;;0.45;0.45;;;7.70;99.90;;;;;;5040906;28;20451;-72
2022/12/25 07:17:08;;;;;;;0.57;0.57;;;7.70;99.90;;;;;;5060598;28;20433;-71
2022/12/25 07:19:34;;;;;;;0.80;0.80;;;7.70;99.90;;;;;;5048269;28;20439;-71
2022/12/25 07:22:10;;;;;;;0.73;0.73;;;7.70;99.90;;;;;;5055060;28;20488;-72
2022/12/25 07:24:37;;;;;;;0.37;0.37;;;7.70;99.90;;;;;;5058148;28;20439;-72
2022/12/25 07:27:05;;;;;;;0.90;0.45;;;7.70;99.90;;;;;;5064398;28;20433;-72
2022/12/25 07:29:32;;;;;;;1.02;0.38;;;7.70;99.90;;;;;;5078663;28;20506;-72
2022/12/25 07:31:59;;;;;;;0.70;0.70;;;7.70;99.90;;;;;;5058334;28;20511;-72
2022/12/25 07:34:29;;;;;;;0.50;0.43;;;7.70;99.90;;;;;;5056089;28;20435;-72
2022/12/25 07:36:58;;;;;;;0.60;0.38;;;7.70;99.90;;;;;;5057454;28;21108;-72
2022/12/25 07:39:24;;;;;;;0.50;0.50;;;7.70;99.90;;;;;;5059852;28;20447;-69
2022/12/25 07:41:54;;;;;;;0.70;0.70;;;7.80;99.90;;;;;;5059178;28;20428;-69
2022/12/25 07:44:21;;;;;;;0.50;0.50;;;7.80;99.90;;;;;;5063466;28;20463;-69
2022/12/25 07:46:47;;;;;;;0.50;0.50;;;7.80;99.90;;;;;;5066331;28;20439;-70
2022/12/25 07:49:14;;;;;;;0.80;0.63;;;7.90;99.90;;;;;;5044334;28;20427;-70
2022/12/25 07:51:41;;;;;;;0.87;0.43;;;7.80;99.90;;;;;;5058127;28;20776;-70
2022/12/25 07:54:07;;;;;;;0.40;0.40;;;7.80;99.90;;;;;;5058855;28;20516;-70
2022/12/25 07:56:34;;;;;;;0.45;0.40;;;7.80;99.90;;;;;;5064591;28;20423;-70
2022/12/25 07:59:01;;;;;;;2.70;0.93;;;7.90;99.90;;;;;;5058702;28;20935;-70
2022/12/25 08:01:28;;;;;;;0.90;0.70;;;8.00;99.90;;;;;;5058320;28;20440;-70
2022/12/25 08:03:58;;;;;;;0.40;0.40;;;8.20;99.90;;;;;;5051556;28;20992;-70
2022/12/25 08:06:33;;;;;;;0.45;0.45;;;8.50;99.90;;;;;;5065433;28;20435;-70
2022/12/25 08:09:09;;;;;;;0.60;0.60;;;8.80;99.90;;;;;;5061266;28;20457;-70
2022/12/25 08:11:37;;;;;;;0.43;0.43;;;8.90;99.90;;;;;;5055238;28;20431;-70
2022/12/25 08:14:07;;;;;;;2.35;0.93;;;8.90;99.90;;;;;;5048840;28;20431;-70
2022/12/25 08:16:34;;;;;;;0.57;0.57;;;8.80;99.90;;;;;;5034152;28;20436;-70
2022/12/25 08:19:02;;;;;;;0.73;0.73;;;8.70;99.90;;;;;;5055013;28;20437;-70
2022/12/25 08:21:29;;;;;;;1.20;0.87;;;8.70;99.90;;;;;;5055300;28;20427;-70
2022/12/25 08:23:57;;;;;;;0.60;0.60;;;8.70;99.90;;;;;;5050405;28;20918;-70
2022/12/25 08:26:24;;;;;;;0.67;0.67;;;8.70;99.90;;;;;;5054927;28;20439;-71
2022/12/25 08:28:51;;;;;;;1.88;1.33;;;8.70;99.90;;;;;;5053991;28;20635;-71
2022/12/25 08:31:24;;;;;;;0.35;0.35;;;8.80;99.90;;;;;;5055808;28;20785;-71
2022/12/25 08:33:52;;;;;;;0.80;0.80;;;8.80;99.90;;;;;;5053522;28;20483;-71
2022/12/25 08:36:20;;;;;;;0.57;0.57;;;8.90;99.90;;;;;;5058093;28;20441;-70
2022/12/25 08:38:47;;;;;;;4.32;3.05;;;8.90;99.90;;;;;;5046783;28;21688;-70
2022/12/25 08:41:15;;;;;;;4.20;3.22;;;8.80;99.90;;;;;;5060462;28;20479;-70
2022/12/25 08:43:42;;;;;;;2.05;1.85;;;8.80;99.90;;;;;;5051276;28;20429;-71
2022/12/25 08:46:09;;;;;;;0.40;0.40;;;8.80;99.90;;;;;;5051675;28;20443;-71
2022/12/25 08:48:36;;;;;;;0.60;0.60;;;8.80;99.90;;;;;;5055132;28;20435;-71
2022/12/25 08:51:15;;;;;;;1.15;0.70;;;8.80;99.90;;;;;;5069346;28;20429;-70
2022/12/25 08:53:47;;;;;;;0.40;0.40;;;8.80;99.90;;;;;;5060709;28;20435;-71
2022/12/25 08:56:14;;;;;;;0.43;0.43;;;8.90;99.90;;;;;;5032747;28;20939;-70
2022/12/25 08:58:41;;;;;;;0.95;0.85;;;8.90;99.90;;;;;;5051732;28;21068;-70
2022/12/25 09:01:12;;;;;;;0.80;0.80;;;8.90;99.90;;;;;;5062104;28;20517;-70
2022/12/25 09:03:39;;;;;;;1.13;1.05;;;8.80;99.90;;;;;;5054678;28;20436;-71
2022/12/25 09:06:08;;;;;;;1.15;0.88;;;8.70;99.90;;;;;;5058036;28;20507;-70
2022/12/25 09:08:35;;;;;;;3.67;1.38;;;8.70;99.90;;;;;;5056209;28;20442;-70
2022/12/25 09:11:11;;;;;;;1.40;0.80;;;8.70;99.90;;;;;;5054259;28;20528;-70
2022/12/25 09:13:39;;;;;;;2.90;1.00;;;8.70;99.90;;;;;;5052730;28;21203;-70
2022/12/25 09:16:11;;;;;;;1.33;1.23;;;8.70;99.90;;;;;;5056979;28;20526;-71
2022/12/25 09:18:39;;;;;;;0.80;0.80;;;8.80;99.90;;;;;;5045294;28;20431;-70
2022/12/25 09:21:10;;;;;;;1.30;1.15;;;8.80;99.90;;;;;;5059365;28;20672;-69
2022/12/25 09:23:37;;;;;;;1.27;1.17;;;8.90;99.90;;;;;;5065022;28;20434;-70
2022/12/25 09:26:06;;;;;;;2.00;1.42;;;8.90;99.90;;;;;;5061790;28;20425;-70
2022/12/25 09:28:33;;;;;;;1.17;1.17;;;8.80;99.90;;;;;;5050306;28;20468;-69
2022/12/25 09:31:01;;;;;;;1.75;1.10;;;8.90;99.90;;;;;;5054974;28;20459;-70
2022/12/25 09:33:29;;;;;;;1.05;0.95;;;8.90;99.90;;;;;;5043652;28;20429;-72
2022/12/25 09:36:02;;;;;;;0.70;0.70;;;9.00;99.90;;;;;;5051602;28;20429;-71
2022/12/25 09:38:29;;;;;;;1.45;1.20;;;9.10;99.90;;;;;;5057277;28;20429;-71
2022/12/25 09:41:14;;;;;;;1.52;1.05;;;9.20;99.90;;;;;;5055244;28;20429;-71
2022/12/25 09:43:50;;;;;;;0.90;0.90;;;9.30;99.90;;;;;;5036806;28;20444;-71
2022/12/25 09:46:21;;;;;;;2.33;0.88;;;9.30;99.90;;;;;;5052182;28;20431;-72
2022/12/25 09:48:56;;;;;;;1.25;1.15;;;9.30;99.90;;;;;;5053299;28;20519;-72
2022/12/25 09:51:26;;;;;;;1.30;1.20;;;9.30;99.90;;;;;;5058550;28;21118;-71
2022/12/25 09:54:21;;;;;;;1.23;1.23;;;9.20;99.90;;;;;;5040824;28;20437;-71
2022/12/25 09:56:48;;;;;;;1.20;0.75;;;9.30;99.90;;;;;;5047665;28;20463;-71
2022/12/25 09:59:23;;;;;;;1.20;1.10;;;9.40;99.90;;;;;;5058989;28;20842;-71
2022/12/25 10:02:32;;;;;;;0.80;0.80;;;9.50;99.90;;;;;;5037163;28;20936;-71
2022/12/25 10:05:14;;;;;;;0.60;0.60;;;9.60;99.90;;;;;;5009588;28;20466;-71
2022/12/25 10:08:13;;;;;;;5.20;0.90;;;9.60;99.90;;;;;;5020706;28;20476;-71
2022/12/25 10:10:57;;;;;;;0.47;0.47;;;9.90;99.90;;;;;;4998155;28;20428;-72
2022/12/25 10:13:57;;;;;;;1.38;0.55;;;10.10;99.90;;;;;;5013023;28;20427;-72
2022/12/25 10:17:20;;;;;;;0.80;0.60;;;10.40;99.90;;;;;;5012516;28;20461;-71
2022/12/25 10:19:51;;;;;;;0.73;0.73;;;10.60;99.90;;;;;;4951413;28;20474;-71
2022/12/25 10:22:34;;;;;;;0.80;0.50;;;10.60;99.90;;;;;;4959915;28;20436;-71
2022/12/25 10:25:05;;;;;;;0.35;0.35;;;10.50;99.90;;;;;;4956129;28;20787;-69
2022/12/25 10:27:41;;;;;;;0.50;0.50;;;10.70;99.90;;;;;;4938505;28;20440;-70
2022/12/25 10:30:23;;;;;;;0.90;0.60;;;10.80;99.90;;;;;;4958112;28;20428;-69
2022/12/25 10:32:51;;;;;;;0.88;0.60;;;11.00;99.90;;;;;;4958543;28;21212;-74
2022/12/25 10:35:21;;;;;;;0.90;0.90;;;10.90;99.90;;;;;;4966762;28;20433;-71
2022/12/25 10:38:00;;;;;;;0.95;0.73;;;11.10;99.90;;;;;;4967503;28;21003;-70
2022/12/25 10:40:45;;;;;;;0.75;0.68;;;11.30;99.90;;;;;;4967067;28;20434;-70
2022/12/25 10:43:24;;;;;;;0.90;0.90;;;11.30;99.90;;;;;;4999233;28;21163;-70
2022/12/25 10:45:50;;;;;;;1.10;0.88;;;11.40;99.90;;;;;;4999978;28;20464;-70
2022/12/25 10:48:25;;;;;;;1.17;1.17;;;11.70;99.90;;;;;;4997664;28;20435;-70
2022/12/25 10:50:53;;;;;;;0.63;0.60;;;12.10;99.90;;;;;;5039155;28;20433;-71
2022/12/25 10:53:26;;;;;;;1.05;0.80;;;12.30;99.90;;;;;;5056058;28;20422;-70
2022/12/25 10:55:58;;;;;;;0.60;0.60;;;12.30;99.90;;;;;;5054362;28;20429;-71
2022/12/25 10:58:25;;;;;;;0.80;0.75;;;12.10;99.90;;;;;;5057963;28;20941;-71
2022/12/25 11:00:57;;;;;;;0.70;0.70;;;11.70;99.90;;;;;;5043272;28;20426;-70
2022/12/25 11:03:28;;;;;;;1.00;0.70;;;11.50;99.90;;;;;;5059805;28;20526;-70
2022/12/25 11:05:55;;;;;;;0.95;0.90;;;11.50;99.90;;;;;;5033300;28;20436;-71
2022/12/25 11:08:24;;;;;;;0.80;0.80;;;11.40;99.90;;;;;;5049732;28;20439;-70
2022/12/25 11:10:55;;;;;;;1.13;0.60;;;11.30;99.90;;;;;;5067976;28;20441;-70
2022/12/25 11:13:28;;;;;;;2.03;0.87;;;11.20;99.90;;;;;;5063177;28;20788;-70
2022/12/25 11:16:10;;;;;;;2.70;0.70;;;11.10;99.90;;;;;;5062034;28;20429;-72
2022/12/25 11:18:47;;;;;;;1.17;1.03;;;11.00;99.90;;;;;;5060871;28;20548;-73
2022/12/25 11:21:29;;;;;;;1.55;0.80;;;10.80;99.90;;;;;;5061252;28;20556;-73
2022/12/25 11:23:57;;;;;;;0.80;0.80;;;10.60;99.90;;;;;;5051384;28;20433;-73
2022/12/25 11:26:29;;;;;;;0.70;0.70;;;10.50;99.90;;;;;;5062796;28;20443;-72
2022/12/25 11:28:58;;;;;;;0.75;0.75;;;10.50;99.90;;;;;;5065192;28;20433;-72
2022/12/25 11:31:45;;;;;;;0.75;0.75;;;10.60;99.90;;;;;;5064883;28;20986;-71
2022/12/25 11:34:37;;;;;;;0.50;0.50;;;10.80;99.90;;;;;;5059007;28;20481;-70
2022/12/25 11:37:11;;;;;;;2.60;1.00;;;10.90;99.90;;;;;;5051256;28;20955;-71
2022/12/25 11:39:39;;;;;;;0.68;0.68;;;10.90;99.90;;;;;;5066242;28;20433;-70
2022/12/25 11:42:21;;;;;;;0.77;0.77;;;11.00;99.90;;;;;;5063218;28;20523;-71
2022/12/25 11:44:53;;;;;;;0.65;0.65;;;10.90;99.90;;;;;;5057215;28;21049;-72
2022/12/25 11:47:20;;;;;;;2.10;0.80;;;11.00;99.90;;;;;;5068543;28;20422;-71
2022/12/25 11:49:52;;;;;;;1.02;1.02;;;11.30;99.90;;;;;;5044732;28;20439;-72
2022/12/25 11:52:30;;;;;;;1.70;0.77;;;11.50;99.90;;;;;;5065854;28;20443;-70
2022/12/25 11:55:18;;;;;;;3.13;0.73;;;11.60;99.90;;;;;;5060702;28;20437;-71
2022/12/25 11:57:52;;;;;;;0.57;0.57;;;11.60;99.90;;;;;;5063154;28;20443;-71
2022/12/25 12:00:19;;;;;;;0.68;0.68;;;11.60;99.90;;;;;;5060611;28;20432;-71
2022/12/25 12:03:02;;;;;;;4.05;2.10;;;11.60;99.90;;;;;;5058606;28;20443;-71
2022/12/25 12:05:35;;;;;;;0.70;0.70;;;11.60;99.90;;;;;;5056868;28;20514;-70
2022/12/25 12:08:04;;;;;;;1.05;1.05;;;11.40;99.90;;;;;;5065768;28;20438;-70
2022/12/25 12:10:42;;;;;;;2.35;1.70;;;11.30;99.90;;;;;;5062199;28;20432;-70
2022/12/25 12:13:22;;;;;;;1.23;1.13;;;11.20;99.90;;;;;;5051791;28;20479;-70
2022/12/25 12:15:52;;;;;;;2.42;1.55;;;11.30;99.90;;;;;;5068784;28;20436;-72
2022/12/25 12:18:24;;;;;;;0.85;0.70;;;11.30;99.90;;;;;;5062238;28;20480;-70
2022/12/25 12:21:02;;;;;;;1.35;1.25;;;11.30;99.90;;;;;;5061040;28;21021;-70
2022/12/25 12:23:34;;;;;;;1.20;1.20;;;11.30;99.90;;;;;;5046208;28;20439;-70
2022/12/25 12:26:01;;;;;;;1.58;1.10;;;11.40;99.90;;;;;;5054464;28;20436;-71
2022/12/25 12:28:42;;;;;;;0.80;0.80;;;11.60;99.90;;;;;;5055829;28;20425;-71
2022/12/25 12:31:09;;;;;;;2.72;1.17;;;11.80;99.90;;;;;;5062198;28;20422;-70
2022/12/25 12:33:57;;;;;;;1.02;1.02;;;12.20;99.90;;;;;;5059080;28;20429;-70
2022/12/25 12:36:26;;;;;;;1.00;0.98;;;12.70;99.90;;;;;;5046716;28;20424;-72
2022/12/25 12:39:03;;;;;;;1.73;1.27;;;12.80;99.90;;;;;;5053026;28;20432;-72
2022/12/25 12:41:44;;;;;;;0.80;0.80;;;12.90;99.90;;;;;;5059146;28;20485;-72
2022/12/25 12:44:12;;;;;;;1.27;1.10;;;12.90;99.90;;;;;;5058317;28;20440;-72
2022/12/25 12:46:50;;;;;;;1.52;1.42;;;13.20;99.90;;;;;;5067262;28;20669;-72
2022/12/25 12:49:32;;;;;;;0.90;0.90;;;13.30;99.90;;;;;;5070334;28;20429;-71
2022/12/25 12:52:19;;;;;;;1.13;1.10;;;13.40;99.90;;;;;;5063195;28;20463;-71
2022/12/25 12:55:13;;;;;;;2.13;1.00;;;13.50;99.90;;;;;;5049640;28;20433;-72
2022/12/25 12:57:41;;;;;;;0.63;0.63;;;13.60;99.90;;;;;;5060801;28;20435;-72
2022/12/25 13:00:17;;;;;;;1.00;1.00;;;14.10;99.90;;;;;;5055159;28;20539;-71
2022/12/25 13:03:15;;;;;;;0.60;0.60;;;14.60;99.90;;;;;;5056405;28;20493;-72
2022/12/25 13:06:07;;;;;;;0.98;0.90;;;14.70;99.90;;;;;;5062693;28;20463;-71
2022/12/25 13:08:43;;;;;;;2.40;0.80;;;14.00;99.90;;;;;;5066045;28;20435;-71
2022/12/25 13:11:19;;;;;;;0.55;0.55;;;13.20;99.90;;;;;;5051972;28;20931;-71
2022/12/25 13:13:48;;;;;;;1.20;0.68;;;12.60;99.90;;;;;;5043012;28;20783;-71
2022/12/25 13:16:21;;;;;;;1.30;0.88;;;12.30;99.90;;;;;;5057533;28;20432;-71
2022/12/25 13:18:51;;;;;;;1.17;1.08;;;12.20;99.90;;;;;;5040404;28;20433;-71
2022/12/25 13:21:23;;;;;;;0.87;0.87;;;12.10;99.90;;;;;;5050602;28;20439;-71
2022/12/25 13:23:56;;;;;;;0.75;0.70;;;12.10;99.90;;;;;;5034185;28;20435;-71
2022/12/25 13:26:23;;;;;;;1.05;1.05;;;12.20;99.90;;;;;;5054037;28;20540;-71
2022/12/25 13:28:50;;;;;;;0.90;0.90;;;12.00;99.90;;;;;;5056335;28;20429;-71
2022/12/25 13:31:24;;;;;;;0.75;0.75;;;11.80;99.90;;;;;;5050840;28;20438;-71
2022/12/25 13:34:02;;;;;;;0.70;0.70;;;11.80;99.90;;;;;;5039725;28;21006;-71
2022/12/25 13:36:37;;;;;;;1.88;1.25;;;11.70;99.90;;;;;;5062372;28;20420;-73
2022/12/25 13:39:08;;;;;;;0.93;0.82;;;11.60;99.90;;;;;;5058131;28;20427;-71
2022/12/25 13:42:05;;;;;;;2.20;0.95;;;11.50;99.90;;;;;;5057586;28;20432;-73
2022/12/25 13:44:43;;;;;;;1.13;0.98;;;11.40;99.90;;;;;;5056134;28;20443;-73
2022/12/25 13:47:19;;;;;;;2.15;0.75;;;11.10;99.90;;;;;;5057138;28;20910;-73
2022/12/25 13:49:47;;;;;;;0.68;0.68;;;11.10;99.90;;;;;;5064704;28;20458;-73
2022/12/25 13:52:19;;;;;;;1.75;0.68;;;11.00;99.90;;;;;;5066057;28;20419;-73
2022/12/25 13:54:57;;;;;;;0.73;0.73;;;11.00;99.90;;;;;;5056426;28;20435;-72
2022/12/25 13:57:36;;;;;;;1.10;1.00;;;11.00;99.90;;;;;;5053887;28;20508;-69
2022/12/25 14:00:05;;;;;;;2.65;1.25;;;10.90;99.90;;;;;;5065206;28;20432;-71
2022/12/25 14:02:36;;;;;;;1.10;1.02;;;10.90;99.90;;;;;;5053487;28;20439;-72
2022/12/25 14:05:20;;;;;;;1.10;1.10;;;10.90;99.90;;;;;;5047549;28;20479;-73
2022/12/25 14:07:56;;;;;;;1.20;1.00;;;11.00;99.90;;;;;;5031020;28;20429;-75
2022/12/25 14:10:26;;;;;;;1.17;1.10;;;10.90;99.90;;;;;;5056838;28;20426;-71
2022/12/25 14:12:56;;;;;;;2.47;1.70;;;10.90;99.90;;;;;;5049543;28;20433;-70
2022/12/25 14:15:23;;;;;;;1.30;1.20;;;10.90;99.90;;;;;;5062193;28;20430;-71
2022/12/25 14:17:51;;;;;;;1.77;0.63;;;11.00;99.90;;;;;;5049889;28;20441;-70
2022/12/25 14:20:27;;;;;;;1.23;1.00;;;11.00;99.90;;;;;;5056231;28;20435;-71
2022/12/25 14:22:58;;;;;;;1.10;1.10;;;11.00;99.90;;;;;;5050353;28;20438;-71
2022/12/25 14:25:32;;;;;;;0.80;0.80;;;11.00;99.90;;;;;;5050528;28;20435;-71
2022/12/25 14:28:04;;;;;;;0.90;0.55;;;11.00;99.90;;;;;;5048886;28;20436;-71
2022/12/25 14:30:32;;;;;;;0.75;0.75;;;11.00;99.90;;;;;;5032979;28;20429;-71
2022/12/25 14:33:01;;;;;;;1.00;0.95;;;11.00;99.90;;;;;;5049954;28;20849;-71
2022/12/25 14:35:30;;;;;;;2.28;1.42;;;10.90;99.90;;;;;;5051957;28;20425;-72
2022/12/25 14:37:59;;;;;;;2.08;1.73;;;10.80;99.90;;;;;;5058156;28;20912;-71
2022/12/25 14:40:29;;;;;;;1.10;1.00;;;10.70;99.90;;;;;;5052481;28;20515;-71
2022/12/25 14:43:01;;;;;;;1.02;1.02;;;10.60;99.90;;;;;;5053824;28;20438;-71
2022/12/25 14:45:33;;;;;;;0.95;0.95;;;10.60;99.90;;;;;;5048390;28;20437;-70
2022/12/25 14:48:21;;;;;;;3.70;1.00;;;10.50;99.90;;;;;;5045032;28;20430;-70
2022/12/25 14:51:17;;;;;;;1.08;1.00;;;10.40;99.90;;;;;;5056834;28;22564;-72
2022/12/25 14:53:52;;;;;;;0.80;0.80;;;10.30;99.90;;;;;;5042853;28;20431;-71
2022/12/25 14:56:24;;;;;;;0.88;0.88;;;10.20;99.90;;;;;;5042200;28;20481;-71
2022/12/25 14:58:58;;;;;;;1.02;1.02;;;10.10;99.90;;;;;;5056363;28;20515;-71